sensor_id;sensor_type;location;lat;lon;timestamp;temperature;humidity
4376;DHT22;2202;50.866;12.750;2023-12-07T00:02:01;0.80;99.90
4376;DHT22;2202;50.866;12.750;2023-12-07T00:04:28;0.80;99.80
4376;DHT22;2202;50.866;12.750;2023-12-07T00:06:55;0.80;99.60
4376;DHT22;2202;50.866;12.750;2023-12-07T00:09:21;0.80;99.60
4376;DHT22;2202;50.866;12.750;2023-12-07T00:11:48;0.70;99.60
4376;DHT22;2202;50.866;12.750;2023-12-07T00:14:17;0.70;99.60
4376;DHT22;2202;50.866;12.750;2023-12-07T00:16:43;0.80;99.60
4376;DHT22;2202;50.866;12.750;2023-12-07T00:19:10;0.80;99.60
4376;DHT22;2202;50.866;12.750;2023-12-07T00:21:37;0.80;99.60
4376;DHT22;2202;50.866;12.750;2023-12-07T00:24:04;0.80;99.50
4376;DHT22;2202;50.866;12.750;2023-12-07T00:26:31;0.80;99.40
4376;DHT22;2202;50.866;12.750;2023-12-07T00:28:58;0.80;99.40
4376;DHT22;2202;50.866;12.750;2023-12-07T00:31:27;0.80;99.60
4376;DHT22;2202;50.866;12.750;2023-12-07T00:33:54;0.80;99.50
4376;DHT22;2202;50.866;12.750;2023-12-07T00:36:21;0.80;99.30
4376;DHT22;2202;50.866;12.750;2023-12-07T00:38:48;0.80;99.50
4376;DHT22;2202;50.866;12.750;2023-12-07T00:41:15;0.80;99.50
4376;DHT22;2202;50.866;12.750;2023-12-07T00:43:43;0.80;99.50
4376;DHT22;2202;50.866;12.750;2023-12-07T00:46:10;0.80;99.50
4376;DHT22;2202;50.866;12.750;2023-12-07T00:48:39;0.80;99.40
4376;DHT22;2202;50.866;12.750;2023-12-07T00:51:06;0.80;99.50
4376;DHT22;2202;50.866;12.750;2023-12-07T00:53:33;0.80;99.40
4376;DHT22;2202;50.866;12.750;2023-12-07T00:56:00;0.80;99.40
4376;DHT22;2202;50.866;12.750;2023-12-07T00:58:28;0.80;99.40
4376;DHT22;2202;50.866;12.750;2023-12-07T01:00:55;0.80;99.30
4376;DHT22;2202;50.866;12.750;2023-12-07T01:03:22;0.80;99.20
4376;DHT22;2202;50.866;12.750;2023-12-07T01:05:51;0.90;99.40
4376;DHT22;2202;50.866;12.750;2023-12-07T01:08:17;0.90;99.40
4376;DHT22;2202;50.866;12.750;2023-12-07T01:10:44;1.00;99.30
4376;DHT22;2202;50.866;12.750;2023-12-07T01:13:11;0.90;99.00
4376;DHT22;2202;50.866;12.750;2023-12-07T01:15:38;1.00;99.10
4376;DHT22;2202;50.866;12.750;2023-12-07T01:18:05;1.00;99.10
4376;DHT22;2202;50.866;12.750;2023-12-07T01:20:32;1.00;98.80
4376;DHT22;2202;50.866;12.750;2023-12-07T01:23:00;1.10;98.80
4376;DHT22;2202;50.866;12.750;2023-12-07T01:25:27;1.10;98.60
4376;DHT22;2202;50.866;12.750;2023-12-07T01:27:54;1.20;98.50
4376;DHT22;2202;50.866;12.750;2023-12-07T01:30:21;1.20;98.40
4376;DHT22;2202;50.866;12.750;2023-12-07T01:32:48;1.10;98.20
4376;DHT22;2202;50.866;12.750;2023-12-07T01:35:15;1.00;98.50
4376;DHT22;2202;50.866;12.750;2023-12-07T01:37:42;1.10;98.70
4376;DHT22;2202;50.866;12.750;2023-12-07T01:40:10;1.10;98.70
4376;DHT22;2202;50.866;12.750;2023-12-07T01:42:37;1.20;98.50
4376;DHT22;2202;50.866;12.750;2023-12-07T01:45:05;1.20;98.20
4376;DHT22;2202;50.866;12.750;2023-12-07T01:47:34;1.20;98.10
4376;DHT22;2202;50.866;12.750;2023-12-07T01:50:02;1.20;97.90
4376;DHT22;2202;50.866;12.750;2023-12-07T01:52:32;1.10;98.20
4376;DHT22;2202;50.866;12.750;2023-12-07T01:55:03;1.10;98.50
4376;DHT22;2202;50.866;12.750;2023-12-07T01:57:32;1.20;98.50
4376;DHT22;2202;50.866;12.750;2023-12-07T01:59:59;1.20;98.40
4376;DHT22;2202;50.866;12.750;2023-12-07T02:02:26;1.20;98.30
4376;DHT22;2202;50.866;12.750;2023-12-07T02:04:53;1.30;98.20
4376;DHT22;2202;50.866;12.750;2023-12-07T02:07:21;1.30;98.10
4376;DHT22;2202;50.866;12.750;2023-12-07T02:09:49;1.20;98.20
4376;DHT22;2202;50.866;12.750;2023-12-07T02:12:16;1.20;98.20
4376;DHT22;2202;50.866;12.750;2023-12-07T02:14:46;1.20;98.10
4376;DHT22;2202;50.866;12.750;2023-12-07T02:17:18;1.20;98.10
4376;DHT22;2202;50.866;12.750;2023-12-07T02:19:57;1.20;98.20
4376;DHT22;2202;50.866;12.750;2023-12-07T02:22:29;1.10;98.30
4376;DHT22;2202;50.866;12.750;2023-12-07T02:25:06;1.10;98.30
4376;DHT22;2202;50.866;12.750;2023-12-07T02:27:37;1.10;98.60
4376;DHT22;2202;50.866;12.750;2023-12-07T02:30:06;1.10;98.60
4376;DHT22;2202;50.866;12.750;2023-12-07T02:32:33;1.10;98.70
4376;DHT22;2202;50.866;12.750;2023-12-07T02:35:00;1.10;98.60
4376;DHT22;2202;50.866;12.750;2023-12-07T02:37:28;1.10;98.80
4376;DHT22;2202;50.866;12.750;2023-12-07T02:39:59;1.10;98.70
4376;DHT22;2202;50.866;12.750;2023-12-07T02:42:29;1.10;98.80
4376;DHT22;2202;50.866;12.750;2023-12-07T02:44:58;1.10;98.80
4376;DHT22;2202;50.866;12.750;2023-12-07T02:47:26;1.10;98.90
4376;DHT22;2202;50.866;12.750;2023-12-07T02:49:53;1.10;98.90
4376;DHT22;2202;50.866;12.750;2023-12-07T02:52:20;1.20;98.90
4376;DHT22;2202;50.866;12.750;2023-12-07T02:54:47;1.20;98.90
4376;DHT22;2202;50.866;12.750;2023-12-07T02:57:14;1.20;98.70
4376;DHT22;2202;50.866;12.750;2023-12-07T02:59:41;1.20;98.60
4376;DHT22;2202;50.866;12.750;2023-12-07T03:02:09;1.20;98.80
4376;DHT22;2202;50.866;12.750;2023-12-07T03:04:36;1.10;98.60
4376;DHT22;2202;50.866;12.750;2023-12-07T03:07:03;1.10;98.80
4376;DHT22;2202;50.866;12.750;2023-12-07T03:09:30;1.00;99.00
4376;DHT22;2202;50.866;12.750;2023-12-07T03:11:57;1.00;99.10
4376;DHT22;2202;50.866;12.750;2023-12-07T03:14:24;1.10;99.10
4376;DHT22;2202;50.866;12.750;2023-12-07T03:16:51;1.00;99.00
4376;DHT22;2202;50.866;12.750;2023-12-07T03:19:19;1.00;99.30
4376;DHT22;2202;50.866;12.750;2023-12-07T03:21:46;1.00;99.50
4376;DHT22;2202;50.866;12.750;2023-12-07T03:24:13;1.00;99.50
4376;DHT22;2202;50.866;12.750;2023-12-07T03:26:40;1.00;99.50
4376;DHT22;2202;50.866;12.750;2023-12-07T03:29:07;1.00;99.20
4376;DHT22;2202;50.866;12.750;2023-12-07T03:31:34;1.00;99.50
4376;DHT22;2202;50.866;12.750;2023-12-07T03:34:01;1.00;99.70
4376;DHT22;2202;50.866;12.750;2023-12-07T03:36:30;1.00;99.70
4376;DHT22;2202;50.866;12.750;2023-12-07T03:38:57;0.90;99.60
4376;DHT22;2202;50.866;12.750;2023-12-07T03:41:24;0.90;99.90
4376;DHT22;2202;50.866;12.750;2023-12-07T03:43:51;1.00;99.90
4376;DHT22;2202;50.866;12.750;2023-12-07T03:46:18;1.00;99.70
4376;DHT22;2202;50.866;12.750;2023-12-07T03:48:45;1.00;99.70
4376;DHT22;2202;50.866;12.750;2023-12-07T03:51:13;1.00;99.60
4376;DHT22;2202;50.866;12.750;2023-12-07T03:53:43;1.00;99.80
4376;DHT22;2202;50.866;12.750;2023-12-07T03:56:10;1.00;99.80
4376;DHT22;2202;50.866;12.750;2023-12-07T03:58:37;1.00;99.80
4376;DHT22;2202;50.866;12.750;2023-12-07T04:01:05;0.90;99.80
4376;DHT22;2202;50.866;12.750;2023-12-07T04:03:32;1.00;99.90
4376;DHT22;2202;50.866;12.750;2023-12-07T04:05:59;1.00;99.90
4376;DHT22;2202;50.866;12.750;2023-12-07T04:08:26;1.00;99.90
4376;DHT22;2202;50.866;12.750;2023-12-07T04:10:54;1.00;99.90
4376;DHT22;2202;50.866;12.750;2023-12-07T04:13:21;0.90;99.90
4376;DHT22;2202;50.866;12.750;2023-12-07T04:15:48;0.90;99.90
4376;DHT22;2202;50.866;12.750;2023-12-07T04:18:15;0.90;99.90
4376;DHT22;2202;50.866;12.750;2023-12-07T04:20:42;0.90;99.90
4376;DHT22;2202;50.866;12.750;2023-12-07T04:23:09;1.00;99.90
4376;DHT22;2202;50.866;12.750;2023-12-07T04:25:36;1.00;99.90
4376;DHT22;2202;50.866;12.750;2023-12-07T04:28:04;1.00;99.90
4376;DHT22;2202;50.866;12.750;2023-12-07T04:30:31;1.00;99.90
4376;DHT22;2202;50.866;12.750;2023-12-07T04:32:58;1.00;99.80
4376;DHT22;2202;50.866;12.750;2023-12-07T04:35:25;0.90;99.80
4376;DHT22;2202;50.866;12.750;2023-12-07T04:37:52;0.90;99.80
4376;DHT22;2202;50.866;12.750;2023-12-07T04:40:19;0.90;99.90
4376;DHT22;2202;50.866;12.750;2023-12-07T04:42:46;0.90;99.90
4376;DHT22;2202;50.866;12.750;2023-12-07T04:45:14;0.90;99.90
4376;DHT22;2202;50.866;12.750;2023-12-07T04:47:44;0.90;99.90
4376;DHT22;2202;50.866;12.750;2023-12-07T04:50:12;0.90;99.90
4376;DHT22;2202;50.866;12.750;2023-12-07T04:52:39;1.00;99.90
4376;DHT22;2202;50.866;12.750;2023-12-07T04:55:07;0.90;99.90
4376;DHT22;2202;50.866;12.750;2023-12-07T04:57:34;0.90;99.80
4376;DHT22;2202;50.866;12.750;2023-12-07T05:00:02;0.90;99.90
4376;DHT22;2202;50.866;12.750;2023-12-07T05:02:33;0.90;99.90
4376;DHT22;2202;50.866;12.750;2023-12-07T05:05:00;0.80;99.90
4376;DHT22;2202;50.866;12.750;2023-12-07T05:07:26;1.00;99.90
4376;DHT22;2202;50.866;12.750;2023-12-07T05:09:53;1.00;99.90
4376;DHT22;2202;50.866;12.750;2023-12-07T05:12:20;1.00;99.90
4376;DHT22;2202;50.866;12.750;2023-12-07T05:14:47;1.10;99.90
4376;DHT22;2202;50.866;12.750;2023-12-07T05:17:14;1.00;99.70
4376;DHT22;2202;50.866;12.750;2023-12-07T05:19:44;1.00;99.70
4376;DHT22;2202;50.866;12.750;2023-12-07T05:22:11;1.00;99.90
4376;DHT22;2202;50.866;12.750;2023-12-07T05:24:38;1.00;99.60
4376;DHT22;2202;50.866;12.750;2023-12-07T05:27:05;1.10;99.70
4376;DHT22;2202;50.866;12.750;2023-12-07T05:29:31;1.10;99.60
4376;DHT22;2202;50.866;12.750;2023-12-07T05:31:58;1.00;99.50
4376;DHT22;2202;50.866;12.750;2023-12-07T05:34:25;1.00;99.60
4376;DHT22;2202;50.866;12.750;2023-12-07T05:36:54;1.00;99.50
4376;DHT22;2202;50.866;12.750;2023-12-07T05:39:20;0.90;99.20
4376;DHT22;2202;50.866;12.750;2023-12-07T05:41:47;0.90;99.40
4376;DHT22;2202;50.866;12.750;2023-12-07T05:44:14;0.90;99.30
4376;DHT22;2202;50.866;12.750;2023-12-07T05:46:47;1.00;99.40
4376;DHT22;2202;50.866;12.750;2023-12-07T05:49:14;1.00;99.10
4376;DHT22;2202;50.866;12.750;2023-12-07T05:51:41;1.00;99.00
4376;DHT22;2202;50.866;12.750;2023-12-07T05:54:09;1.00;99.00
4376;DHT22;2202;50.866;12.750;2023-12-07T05:56:36;1.00;98.80
4376;DHT22;2202;50.866;12.750;2023-12-07T05:59:03;1.00;98.80
4376;DHT22;2202;50.866;12.750;2023-12-07T06:01:30;1.00;98.80
4376;DHT22;2202;50.866;12.750;2023-12-07T06:03:57;1.00;98.70
4376;DHT22;2202;50.866;12.750;2023-12-07T06:06:25;1.00;99.00
4376;DHT22;2202;50.866;12.750;2023-12-07T06:08:51;0.90;98.70
4376;DHT22;2202;50.866;12.750;2023-12-07T06:11:20;0.80;98.80
4376;DHT22;2202;50.866;12.750;2023-12-07T06:13:47;0.80;99.00
4376;DHT22;2202;50.866;12.750;2023-12-07T06:16:14;0.90;99.10
4376;DHT22;2202;50.866;12.750;2023-12-07T06:18:43;0.90;99.00
4376;DHT22;2202;50.866;12.750;2023-12-07T06:21:09;0.90;98.80
4376;DHT22;2202;50.866;12.750;2023-12-07T06:23:36;0.90;99.10
4376;DHT22;2202;50.866;12.750;2023-12-07T06:26:03;0.90;99.20
4376;DHT22;2202;50.866;12.750;2023-12-07T06:28:32;0.90;99.00
4376;DHT22;2202;50.866;12.750;2023-12-07T06:31:04;0.90;99.00
4376;DHT22;2202;50.866;12.750;2023-12-07T06:33:31;1.00;99.00
4376;DHT22;2202;50.866;12.750;2023-12-07T06:35:58;1.00;98.70
4376;DHT22;2202;50.866;12.750;2023-12-07T06:38:25;1.00;98.60
4376;DHT22;2202;50.866;12.750;2023-12-07T06:40:52;1.00;98.60
4376;DHT22;2202;50.866;12.750;2023-12-07T06:43:19;1.00;98.60
4376;DHT22;2202;50.866;12.750;2023-12-07T06:45:47;1.00;98.20
4376;DHT22;2202;50.866;12.750;2023-12-07T06:48:14;1.00;98.50
4376;DHT22;2202;50.866;12.750;2023-12-07T06:50:41;1.00;98.10
4376;DHT22;2202;50.866;12.750;2023-12-07T06:53:08;1.00;98.20
4376;DHT22;2202;50.866;12.750;2023-12-07T06:55:35;0.90;98.20
4376;DHT22;2202;50.866;12.750;2023-12-07T06:58:02;0.90;98.10
4376;DHT22;2202;50.866;12.750;2023-12-07T07:00:29;0.90;98.40
4376;DHT22;2202;50.866;12.750;2023-12-07T07:02:57;1.00;98.40
4376;DHT22;2202;50.866;12.750;2023-12-07T07:05:24;0.90;98.00
4376;DHT22;2202;50.866;12.750;2023-12-07T07:07:51;0.90;98.20
4376;DHT22;2202;50.866;12.750;2023-12-07T07:10:18;1.00;98.10
4376;DHT22;2202;50.866;12.750;2023-12-07T07:12:45;0.90;98.00
4376;DHT22;2202;50.866;12.750;2023-12-07T07:15:11;0.90;98.10
4376;DHT22;2202;50.866;12.750;2023-12-07T07:17:38;0.90;98.20
4376;DHT22;2202;50.866;12.750;2023-12-07T07:20:08;0.90;98.00
4376;DHT22;2202;50.866;12.750;2023-12-07T07:22:35;0.90;98.10
4376;DHT22;2202;50.866;12.750;2023-12-07T07:25:02;0.90;98.00
4376;DHT22;2202;50.866;12.750;2023-12-07T07:27:30;0.80;98.00
4376;DHT22;2202;50.866;12.750;2023-12-07T07:29:57;0.90;98.20
4376;DHT22;2202;50.866;12.750;2023-12-07T07:32:24;0.90;97.80
4376;DHT22;2202;50.866;12.750;2023-12-07T07:34:50;0.90;98.00
4376;DHT22;2202;50.866;12.750;2023-12-07T07:37:19;1.00;98.00
4376;DHT22;2202;50.866;12.750;2023-12-07T07:39:46;1.00;98.00
4376;DHT22;2202;50.866;12.750;2023-12-07T07:42:13;1.10;97.80
4376;DHT22;2202;50.866;12.750;2023-12-07T07:44:40;1.10;97.60
4376;DHT22;2202;50.866;12.750;2023-12-07T07:47:07;1.20;97.50
4376;DHT22;2202;50.866;12.750;2023-12-07T07:49:34;1.20;97.10
4376;DHT22;2202;50.866;12.750;2023-12-07T07:52:01;1.20;97.00
4376;DHT22;2202;50.866;12.750;2023-12-07T07:54:29;1.20;97.00
4376;DHT22;2202;50.866;12.750;2023-12-07T07:56:56;1.30;97.00
4376;DHT22;2202;50.866;12.750;2023-12-07T07:59:23;1.30;96.90
4376;DHT22;2202;50.866;12.750;2023-12-07T08:01:50;1.40;96.70
4376;DHT22;2202;50.866;12.750;2023-12-07T08:04:17;1.40;96.50
4376;DHT22;2202;50.866;12.750;2023-12-07T08:06:44;1.40;96.30
4376;DHT22;2202;50.866;12.750;2023-12-07T08:09:11;1.40;96.30
4376;DHT22;2202;50.866;12.750;2023-12-07T08:11:39;1.40;96.40
4376;DHT22;2202;50.866;12.750;2023-12-07T08:14:06;1.30;96.40
4376;DHT22;2202;50.866;12.750;2023-12-07T08:16:33;1.30;96.40
4376;DHT22;2202;50.866;12.750;2023-12-07T08:19:00;1.30;96.40
4376;DHT22;2202;50.866;12.750;2023-12-07T08:21:27;1.30;96.50
4376;DHT22;2202;50.866;12.750;2023-12-07T08:23:55;1.30;96.50
4376;DHT22;2202;50.866;12.750;2023-12-07T08:26:22;1.40;96.30
4376;DHT22;2202;50.866;12.750;2023-12-07T08:28:50;1.30;96.30
4376;DHT22;2202;50.866;12.750;2023-12-07T08:31:19;1.30;96.40
4376;DHT22;2202;50.866;12.750;2023-12-07T08:33:48;1.30;96.10
4376;DHT22;2202;50.866;12.750;2023-12-07T08:36:15;1.30;96.10
4376;DHT22;2202;50.866;12.750;2023-12-07T08:38:42;1.30;96.40
4376;DHT22;2202;50.866;12.750;2023-12-07T08:41:09;1.30;96.20
4376;DHT22;2202;50.866;12.750;2023-12-07T08:43:36;1.30;96.20
4376;DHT22;2202;50.866;12.750;2023-12-07T08:46:05;1.20;96.30
4376;DHT22;2202;50.866;12.750;2023-12-07T08:48:32;1.10;96.60
4376;DHT22;2202;50.866;12.750;2023-12-07T08:50:59;1.20;96.60
4376;DHT22;2202;50.866;12.750;2023-12-07T08:53:27;1.20;96.70
4376;DHT22;2202;50.866;12.750;2023-12-07T08:55:54;1.20;96.90
4376;DHT22;2202;50.866;12.750;2023-12-07T08:58:21;1.20;96.50
4376;DHT22;2202;50.866;12.750;2023-12-07T09:00:48;1.20;96.70
4376;DHT22;2202;50.866;12.750;2023-12-07T09:03:15;1.20;96.50
4376;DHT22;2202;50.866;12.750;2023-12-07T09:05:42;1.20;96.70
4376;DHT22;2202;50.866;12.750;2023-12-07T09:08:09;1.20;96.70
4376;DHT22;2202;50.866;12.750;2023-12-07T09:10:36;1.30;96.70
4376;DHT22;2202;50.866;12.750;2023-12-07T09:13:03;1.40;96.80
4376;DHT22;2202;50.866;12.750;2023-12-07T09:15:31;1.40;96.50
4376;DHT22;2202;50.866;12.750;2023-12-07T09:17:58;1.30;96.70
4376;DHT22;2202;50.866;12.750;2023-12-07T09:20:26;1.30;96.80
4376;DHT22;2202;50.866;12.750;2023-12-07T09:22:53;1.30;96.70
4376;DHT22;2202;50.866;12.750;2023-12-07T09:25:22;1.30;96.70
4376;DHT22;2202;50.866;12.750;2023-12-07T09:27:53;1.40;96.40
4376;DHT22;2202;50.866;12.750;2023-12-07T09:30:20;1.40;96.50
4376;DHT22;2202;50.866;12.750;2023-12-07T09:32:47;1.40;96.30
4376;DHT22;2202;50.866;12.750;2023-12-07T09:35:14;1.30;96.40
4376;DHT22;2202;50.866;12.750;2023-12-07T09:37:46;1.30;96.70
4376;DHT22;2202;50.866;12.750;2023-12-07T09:40:16;1.30;96.60
4376;DHT22;2202;50.866;12.750;2023-12-07T09:42:44;1.40;96.60
4376;DHT22;2202;50.866;12.750;2023-12-07T09:45:12;1.40;96.20
4376;DHT22;2202;50.866;12.750;2023-12-07T09:47:39;1.50;96.20
4376;DHT22;2202;50.866;12.750;2023-12-07T09:50:08;1.50;96.10
4376;DHT22;2202;50.866;12.750;2023-12-07T09:52:35;1.60;96.10
4376;DHT22;2202;50.866;12.750;2023-12-07T09:55:05;1.60;95.80
4376;DHT22;2202;50.866;12.750;2023-12-07T09:57:32;1.50;95.90
4376;DHT22;2202;50.866;12.750;2023-12-07T09:59:59;1.50;95.80
4376;DHT22;2202;50.866;12.750;2023-12-07T10:02:26;1.50;95.90
4376;DHT22;2202;50.866;12.750;2023-12-07T10:05:03;1.40;95.80
4376;DHT22;2202;50.866;12.750;2023-12-07T10:07:33;1.40;96.10
4376;DHT22;2202;50.866;12.750;2023-12-07T10:10:01;1.30;96.20
4376;DHT22;2202;50.866;12.750;2023-12-07T10:12:30;1.40;96.50
4376;DHT22;2202;50.866;12.750;2023-12-07T10:14:59;1.30;96.20
4376;DHT22;2202;50.866;12.750;2023-12-07T10:17:43;1.30;96.40
4376;DHT22;2202;50.866;12.750;2023-12-07T10:20:12;1.30;96.50
4376;DHT22;2202;50.866;12.750;2023-12-07T10:22:39;1.30;96.60
4376;DHT22;2202;50.866;12.750;2023-12-07T10:25:07;1.40;96.70
4376;DHT22;2202;50.866;12.750;2023-12-07T10:27:38;1.40;96.60
4376;DHT22;2202;50.866;12.750;2023-12-07T10:30:08;1.40;96.60
4376;DHT22;2202;50.866;12.750;2023-12-07T10:32:36;1.40;96.40
4376;DHT22;2202;50.866;12.750;2023-12-07T10:35:06;1.40;96.50
4376;DHT22;2202;50.866;12.750;2023-12-07T10:37:34;1.40;96.70
4376;DHT22;2202;50.866;12.750;2023-12-07T10:40:02;1.40;96.20
4376;DHT22;2202;50.866;12.750;2023-12-07T10:42:33;1.40;96.50
4376;DHT22;2202;50.866;12.750;2023-12-07T10:45:04;1.50;96.30
4376;DHT22;2202;50.866;12.750;2023-12-07T10:47:35;1.50;96.10
4376;DHT22;2202;50.866;12.750;2023-12-07T10:50:04;1.50;96.30
4376;DHT22;2202;50.866;12.750;2023-12-07T10:52:32;1.40;95.80
4376;DHT22;2202;50.866;12.750;2023-12-07T10:55:03;1.40;96.40
4376;DHT22;2202;50.866;12.750;2023-12-07T10:57:33;1.40;96.40
4376;DHT22;2202;50.866;12.750;2023-12-07T11:00:02;1.40;96.30
4376;DHT22;2202;50.866;12.750;2023-12-07T11:02:32;1.40;96.50
4376;DHT22;2202;50.866;12.750;2023-12-07T11:05:01;1.40;96.20
4376;DHT22;2202;50.866;12.750;2023-12-07T11:07:37;1.40;96.40
4376;DHT22;2202;50.866;12.750;2023-12-07T11:10:13;1.40;96.30
4376;DHT22;2202;50.866;12.750;2023-12-07T11:12:47;1.40;96.30
4376;DHT22;2202;50.866;12.750;2023-12-07T11:15:18;1.60;96.40
4376;DHT22;2202;50.866;12.750;2023-12-07T11:17:50;1.60;96.30
4376;DHT22;2202;50.866;12.750;2023-12-07T11:20:19;1.60;96.10
4376;DHT22;2202;50.866;12.750;2023-12-07T11:22:47;1.60;95.90
4376;DHT22;2202;50.866;12.750;2023-12-07T11:25:15;1.60;95.70
4376;DHT22;2202;50.866;12.750;2023-12-07T11:27:44;1.70;95.80
4376;DHT22;2202;50.866;12.750;2023-12-07T11:30:14;1.60;95.30
4376;DHT22;2202;50.866;12.750;2023-12-07T11:32:43;1.60;95.60
4376;DHT22;2202;50.866;12.750;2023-12-07T11:35:14;1.70;95.70
4376;DHT22;2202;50.866;12.750;2023-12-07T11:38:03;1.60;95.60
4376;DHT22;2202;50.866;12.750;2023-12-07T11:40:32;1.70;95.80
4376;DHT22;2202;50.866;12.750;2023-12-07T11:43:00;1.80;95.40
4376;DHT22;2202;50.866;12.750;2023-12-07T11:45:40;1.80;95.10
4376;DHT22;2202;50.866;12.750;2023-12-07T11:48:13;1.80;95.30
4376;DHT22;2202;50.866;12.750;2023-12-07T11:50:57;1.70;95.20
4376;DHT22;2202;50.866;12.750;2023-12-07T11:53:26;1.70;95.30
4376;DHT22;2202;50.866;12.750;2023-12-07T11:55:55;1.80;95.30
4376;DHT22;2202;50.866;12.750;2023-12-07T11:58:23;1.70;95.40
4376;DHT22;2202;50.866;12.750;2023-12-07T12:00:51;1.80;95.80
4376;DHT22;2202;50.866;12.750;2023-12-07T12:03:20;1.90;95.50
4376;DHT22;2202;50.866;12.750;2023-12-07T12:05:47;1.80;95.20
4376;DHT22;2202;50.866;12.750;2023-12-07T12:08:15;1.80;95.30
4376;DHT22;2202;50.866;12.750;2023-12-07T12:10:42;1.90;95.20
4376;DHT22;2202;50.866;12.750;2023-12-07T12:13:09;1.90;94.90
4376;DHT22;2202;50.866;12.750;2023-12-07T12:15:37;1.90;94.90
4376;DHT22;2202;50.866;12.750;2023-12-07T12:18:04;1.80;94.70
4376;DHT22;2202;50.866;12.750;2023-12-07T12:20:33;1.80;95.00
4376;DHT22;2202;50.866;12.750;2023-12-07T12:23:00;1.70;95.10
4376;DHT22;2202;50.866;12.750;2023-12-07T12:25:29;1.60;95.10
4376;DHT22;2202;50.866;12.750;2023-12-07T12:27:58;1.60;95.40
4376;DHT22;2202;50.866;12.750;2023-12-07T12:30:28;1.70;95.10
4376;DHT22;2202;50.866;12.750;2023-12-07T12:32:55;1.70;95.20
4376;DHT22;2202;50.866;12.750;2023-12-07T12:35:23;1.90;95.00
4376;DHT22;2202;50.866;12.750;2023-12-07T12:37:51;1.80;94.50
4376;DHT22;2202;50.866;12.750;2023-12-07T12:40:21;1.80;94.70
4376;DHT22;2202;50.866;12.750;2023-12-07T12:42:50;1.80;94.80
4376;DHT22;2202;50.866;12.750;2023-12-07T12:45:18;1.70;94.80
4376;DHT22;2202;50.866;12.750;2023-12-07T12:47:46;1.80;95.10
4376;DHT22;2202;50.866;12.750;2023-12-07T12:50:32;1.90;95.10
4376;DHT22;2202;50.866;12.750;2023-12-07T12:53:03;2.00;94.90
4376;DHT22;2202;50.866;12.750;2023-12-07T12:55:32;2.00;94.80
4376;DHT22;2202;50.866;12.750;2023-12-07T12:57:59;2.00;94.80
4376;DHT22;2202;50.866;12.750;2023-12-07T13:00:29;2.10;94.60
4376;DHT22;2202;50.866;12.750;2023-12-07T13:02:56;2.20;94.20
4376;DHT22;2202;50.866;12.750;2023-12-07T13:05:23;2.10;94.00
4376;DHT22;2202;50.866;12.750;2023-12-07T13:07:50;2.20;94.00
4376;DHT22;2202;50.866;12.750;2023-12-07T13:10:19;2.10;93.70
4376;DHT22;2202;50.866;12.750;2023-12-07T13:12:46;1.90;94.10
4376;DHT22;2202;50.866;12.750;2023-12-07T13:15:13;1.90;94.50
4376;DHT22;2202;50.866;12.750;2023-12-07T13:17:41;1.90;94.60
4376;DHT22;2202;50.866;12.750;2023-12-07T13:20:09;2.10;94.40
4376;DHT22;2202;50.866;12.750;2023-12-07T13:22:36;2.10;94.00
4376;DHT22;2202;50.866;12.750;2023-12-07T13:25:05;2.10;93.90
4376;DHT22;2202;50.866;12.750;2023-12-07T13:27:34;2.10;93.90
4376;DHT22;2202;50.866;12.750;2023-12-07T13:30:01;2.10;93.90
4376;DHT22;2202;50.866;12.750;2023-12-07T13:32:31;2.00;93.60
4376;DHT22;2202;50.866;12.750;2023-12-07T13:34:58;2.00;93.40
4376;DHT22;2202;50.866;12.750;2023-12-07T13:37:25;2.00;93.70
4376;DHT22;2202;50.866;12.750;2023-12-07T13:39:52;2.00;93.90
4376;DHT22;2202;50.866;12.750;2023-12-07T13:42:23;2.10;93.90
4376;DHT22;2202;50.866;12.750;2023-12-07T13:44:54;2.20;93.80
4376;DHT22;2202;50.866;12.750;2023-12-07T13:47:23;2.10;94.00
4376;DHT22;2202;50.866;12.750;2023-12-07T13:49:54;2.10;94.20
4376;DHT22;2202;50.866;12.750;2023-12-07T13:52:22;2.00;94.40
4376;DHT22;2202;50.866;12.750;2023-12-07T13:54:49;1.90;94.60
4376;DHT22;2202;50.866;12.750;2023-12-07T13:57:16;1.80;95.00
4376;DHT22;2202;50.866;12.750;2023-12-07T13:59:43;1.90;95.20
4376;DHT22;2202;50.866;12.750;2023-12-07T14:02:11;1.80;94.90
4376;DHT22;2202;50.866;12.750;2023-12-07T14:04:38;1.80;95.10
4376;DHT22;2202;50.866;12.750;2023-12-07T14:07:10;1.70;95.00
4376;DHT22;2202;50.866;12.750;2023-12-07T14:09:37;1.60;95.20
4376;DHT22;2202;50.866;12.750;2023-12-07T14:12:04;1.60;95.40
4376;DHT22;2202;50.866;12.750;2023-12-07T14:14:31;1.70;95.40
4376;DHT22;2202;50.866;12.750;2023-12-07T14:16:58;1.90;94.90
4376;DHT22;2202;50.866;12.750;2023-12-07T14:19:27;2.00;94.60
4376;DHT22;2202;50.866;12.750;2023-12-07T14:21:54;2.10;94.40
4376;DHT22;2202;50.866;12.750;2023-12-07T14:24:23;2.10;94.00
4376;DHT22;2202;50.866;12.750;2023-12-07T14:26:50;2.10;93.70
4376;DHT22;2202;50.866;12.750;2023-12-07T14:29:17;2.10;93.60
4376;DHT22;2202;50.866;12.750;2023-12-07T14:31:47;2.10;93.50
4376;DHT22;2202;50.866;12.750;2023-12-07T14:34:15;1.90;94.10
4376;DHT22;2202;50.866;12.750;2023-12-07T14:36:43;1.80;94.40
4376;DHT22;2202;50.866;12.750;2023-12-07T14:39:11;1.90;94.40
4376;DHT22;2202;50.866;12.750;2023-12-07T14:41:43;1.90;94.40
4376;DHT22;2202;50.866;12.750;2023-12-07T14:44:10;1.90;94.40
4376;DHT22;2202;50.866;12.750;2023-12-07T14:46:37;1.80;94.50
4376;DHT22;2202;50.866;12.750;2023-12-07T14:49:04;1.90;94.60
4376;DHT22;2202;50.866;12.750;2023-12-07T14:51:31;1.90;94.50
4376;DHT22;2202;50.866;12.750;2023-12-07T14:53:59;1.90;94.30
4376;DHT22;2202;50.866;12.750;2023-12-07T14:56:26;1.90;94.40
4376;DHT22;2202;50.866;12.750;2023-12-07T14:58:53;1.90;94.30
4376;DHT22;2202;50.866;12.750;2023-12-07T15:01:20;1.70;94.40
4376;DHT22;2202;50.866;12.750;2023-12-07T15:03:47;1.70;94.50
4376;DHT22;2202;50.866;12.750;2023-12-07T15:06:14;1.70;94.70
4376;DHT22;2202;50.866;12.750;2023-12-07T15:08:40;1.70;94.70
4376;DHT22;2202;50.866;12.750;2023-12-07T15:11:09;1.70;94.50
4376;DHT22;2202;50.866;12.750;2023-12-07T15:13:36;1.60;94.70
4376;DHT22;2202;50.866;12.750;2023-12-07T15:16:03;1.60;94.70
4376;DHT22;2202;50.866;12.750;2023-12-07T15:18:30;1.40;94.70
4376;DHT22;2202;50.866;12.750;2023-12-07T15:21:00;1.40;95.00
4376;DHT22;2202;50.866;12.750;2023-12-07T15:23:27;1.40;95.00
4376;DHT22;2202;50.866;12.750;2023-12-07T15:25:54;1.50;95.00
4376;DHT22;2202;50.866;12.750;2023-12-07T15:28:23;1.50;94.80
4376;DHT22;2202;50.866;12.750;2023-12-07T15:30:50;1.50;94.80
4376;DHT22;2202;50.866;12.750;2023-12-07T15:33:17;1.30;94.60
4376;DHT22;2202;50.866;12.750;2023-12-07T15:35:44;1.20;94.90
4376;DHT22;2202;50.866;12.750;2023-12-07T15:38:11;1.10;95.50
4376;DHT22;2202;50.866;12.750;2023-12-07T15:40:39;1.10;95.50
4376;DHT22;2202;50.866;12.750;2023-12-07T15:43:06;1.10;95.50
4376;DHT22;2202;50.866;12.750;2023-12-07T15:45:34;1.10;95.50
4376;DHT22;2202;50.866;12.750;2023-12-07T15:48:01;1.10;95.50
4376;DHT22;2202;50.866;12.750;2023-12-07T15:50:29;1.20;95.30
4376;DHT22;2202;50.866;12.750;2023-12-07T15:52:56;1.10;95.20
4376;DHT22;2202;50.866;12.750;2023-12-07T15:55:23;1.10;95.40
4376;DHT22;2202;50.866;12.750;2023-12-07T15:57:50;1.10;95.60
4376;DHT22;2202;50.866;12.750;2023-12-07T16:00:17;1.10;95.70
4376;DHT22;2202;50.866;12.750;2023-12-07T16:02:45;1.10;95.70
4376;DHT22;2202;50.866;12.750;2023-12-07T16:05:12;1.10;95.80
4376;DHT22;2202;50.866;12.750;2023-12-07T16:07:39;1.10;95.80